createdAt,value
2022-10-28T00:01:27.835Z,100526.88
2022-10-28T00:04:00.796Z,100565.34
2022-10-28T00:06:35.809Z,100541.19
2022-10-28T00:09:08.334Z,100562.25
2022-10-28T00:11:39.956Z,100549.41
2022-10-28T00:14:10.394Z,100564.19
2022-10-28T00:16:38.827Z,100566.63
2022-10-28T00:19:09.775Z,100563.88
2022-10-28T00:21:40.232Z,100551.88
2022-10-28T00:24:10.320Z,100563.53
2022-10-28T00:26:42.476Z,100566.19
2022-10-28T00:29:15.054Z,100520.06
2022-10-28T00:31:44.233Z,100577.00
2022-10-28T00:34:16.553Z,100553.13
2022-10-28T00:36:47.612Z,100569.56
2022-10-28T00:39:24.695Z,100541.34
2022-10-28T00:42:03.856Z,100515.03
2022-10-28T00:44:56.650Z,100513.16
2022-10-28T00:48:00.959Z,100560.88
2022-10-28T00:50:52.125Z,100551.03
2022-10-28T00:53:28.562Z,100509.75
2022-10-28T00:55:59.693Z,100522.56
2022-10-28T00:58:28.333Z,100525.19
2022-10-28T01:00:56.649Z,100503.00
2022-10-28T01:03:25.414Z,100534.16
2022-10-28T01:05:54.085Z,100511.69
2022-10-28T01:08:22.220Z,100541.91
2022-10-28T01:10:55.864Z,100530.50
2022-10-28T01:13:57.041Z,100553.41
2022-10-28T01:16:52.784Z,100538.78
2022-10-28T01:19:52.134Z,100532.78
2022-10-28T01:22:34.109Z,100531.09
2022-10-28T01:25:45.784Z,100531.22
2022-10-28T01:28:50.801Z,100529.84
2022-10-28T01:31:51.453Z,100524.44
2022-10-28T01:34:51.272Z,100480.44
2022-10-28T01:37:52.155Z,100520.19
2022-10-28T01:40:49.384Z,100520.63
2022-10-28T01:43:28.522Z,100532.19
2022-10-28T01:46:15.360Z,100479.69
2022-10-28T01:49:00.289Z,100522.31
2022-10-28T01:51:43.447Z,100491.44
2022-10-28T01:54:15.448Z,100515.28
2022-10-28T01:56:46.020Z,100507.84
2022-10-28T01:59:20.178Z,100492.28
2022-10-28T02:01:48.475Z,100508.72
2022-10-28T02:04:16.754Z,100435.00
2022-10-28T02:06:49.206Z,100463.31
2022-10-28T02:09:41.454Z,100502.13
2022-10-28T02:12:39.056Z,100494.72
2022-10-28T02:15:25.251Z,100461.19
2022-10-28T02:18:42.443Z,100493.84
2022-10-28T02:21:32.626Z,100447.59
2022-10-28T02:24:08.231Z,100506.78
2022-10-28T02:26:47.605Z,100466.81
2022-10-28T02:29:41.355Z,100493.31
2022-10-28T02:32:17.109Z,100500.66
2022-10-28T02:34:50.353Z,100511.28
2022-10-28T02:37:28.662Z,100510.53
2022-10-28T02:40:02.310Z,100508.50
2022-10-28T02:42:37.273Z,100492.41
2022-10-28T02:45:29.992Z,100509.56
2022-10-28T02:48:03.787Z,100489.03
2022-10-28T02:50:38.522Z,100495.69
2022-10-28T02:53:21.105Z,100454.09
2022-10-28T02:55:57.652Z,100454.97
2022-10-28T02:58:25.951Z,100485.38
2022-10-28T03:00:54.067Z,100493.44
2022-10-28T03:03:22.160Z,100464.59
2022-10-28T03:05:50.234Z,100450.81
2022-10-28T03:08:18.094Z,100487.97
2022-10-28T03:10:46.344Z,100488.16
2022-10-28T03:13:14.487Z,100450.00
2022-10-28T03:15:42.406Z,100473.44
2022-10-28T03:18:10.358Z,100437.69
2022-10-28T03:20:38.369Z,100485.09
2022-10-28T03:23:06.802Z,100488.34
2022-10-28T03:25:35.262Z,100493.16
2022-10-28T03:28:03.275Z,100481.38
2022-10-28T03:30:31.216Z,100489.22
2022-10-28T03:32:59.333Z,100494.84
2022-10-28T03:35:27.351Z,100496.44
2022-10-28T03:37:55.201Z,100502.59
2022-10-28T03:40:23.414Z,100503.22
2022-10-28T03:42:51.844Z,100482.91
2022-10-28T03:45:20.770Z,100494.13
2022-10-28T03:47:49.448Z,100456.50
2022-10-28T03:50:17.623Z,100494.56
2022-10-28T03:52:45.587Z,100493.59
2022-10-28T03:55:13.962Z,100493.59
2022-10-28T03:57:41.976Z,100498.47
2022-10-28T04:00:10.545Z,100494.88
2022-10-28T04:02:41.628Z,100504.31
2022-10-28T04:05:09.773Z,100493.50
2022-10-28T04:07:37.629Z,100486.69
2022-10-28T04:10:06.602Z,100496.88
2022-10-28T04:12:34.920Z,100497.75
2022-10-28T04:15:03.384Z,100494.34
2022-10-28T04:17:31.438Z,100437.00
2022-10-28T04:19:59.289Z,100455.66
2022-10-28T04:22:27.207Z,100483.31
2022-10-28T04:24:55.173Z,100487.22
2022-10-28T04:27:22.985Z,100486.06
2022-10-28T04:29:50.993Z,100482.66
2022-10-28T04:32:19.176Z,100484.28
2022-10-28T04:34:47.015Z,100484.34
2022-10-28T04:37:20.357Z,100484.16
2022-10-28T04:39:48.864Z,100477.47
2022-10-28T04:42:16.967Z,100451.31
2022-10-28T04:44:44.865Z,100394.72
2022-10-28T04:47:12.820Z,100428.38
2022-10-28T04:49:41.367Z,100477.38
2022-10-28T04:52:12.016Z,100467.06
2022-10-28T04:54:43.162Z,100447.47
2022-10-28T04:57:11.150Z,100477.13
2022-10-28T04:59:39.055Z,100472.34
2022-10-28T05:02:07.563Z,100479.16
2022-10-28T05:04:35.462Z,100431.97
2022-10-28T05:07:04.513Z,100472.44
2022-10-28T05:09:32.574Z,100426.59
2022-10-28T05:12:00.482Z,100481.44
2022-10-28T05:14:28.418Z,100483.13
2022-10-28T05:16:56.715Z,100474.09
2022-10-28T05:19:24.652Z,100427.16
2022-10-28T05:21:53.658Z,100472.19
2022-10-28T05:24:21.973Z,100474.00
2022-10-28T05:26:51.005Z,100471.97
2022-10-28T05:29:19.749Z,100457.34
2022-10-28T05:31:47.784Z,100431.19
2022-10-28T05:34:15.654Z,100415.50
2022-10-28T05:36:43.656Z,100466.53
2022-10-28T05:39:13.968Z,100467.09
2022-10-28T05:41:41.852Z,100461.25
2022-10-28T05:44:09.819Z,100439.66
2022-10-28T05:46:37.929Z,100429.91
2022-10-28T05:49:05.845Z,100479.06
2022-10-28T05:51:33.666Z,100418.91
2022-10-28T05:54:02.365Z,100422.06
2022-10-28T05:56:30.201Z,100476.94
2022-10-28T05:58:58.290Z,100478.50
2022-10-28T06:01:26.323Z,100466.94
2022-10-28T06:03:54.330Z,100430.81
2022-10-28T06:06:22.250Z,100476.53
2022-10-28T06:08:50.358Z,100475.88
2022-10-28T06:11:17.090Z,100482.53
2022-10-28T06:13:45.020Z,100479.41
2022-10-28T06:16:13.596Z,100487.66
2022-10-28T06:18:41.646Z,100483.53
2022-10-28T06:21:10.045Z,100474.84
2022-10-28T06:23:38.188Z,100469.53
2022-10-28T06:26:06.529Z,100464.09
2022-10-28T06:28:34.475Z,100434.44
2022-10-28T06:31:07.247Z,100438.84
2022-10-28T06:33:35.692Z,100478.81
2022-10-28T06:36:03.951Z,100443.53
2022-10-28T06:38:31.907Z,100477.25
2022-10-28T06:40:59.817Z,100478.75
2022-10-28T06:43:27.752Z,100437.69
2022-10-28T06:46:04.390Z,100452.97
2022-10-28T06:48:34.479Z,100418.78
2022-10-28T06:51:02.659Z,100476.81
2022-10-28T06:53:30.682Z,100471.38
2022-10-28T06:55:59.541Z,100473.78
2022-10-28T06:58:27.608Z,100479.47
2022-10-28T07:00:55.940Z,100362.03
2022-10-28T07:03:23.957Z,100451.56
2022-10-28T07:05:51.883Z,100488.56
2022-10-28T07:08:20.218Z,100489.06
2022-10-28T07:11:00.049Z,100477.69
2022-10-28T07:13:28.114Z,100448.31
2022-10-28T07:15:59.545Z,100470.44
2022-10-28T07:18:30.225Z,100443.66
2022-10-28T07:21:02.261Z,100497.09
2022-10-28T07:23:34.449Z,100457.75
2022-10-28T07:26:02.359Z,100465.78
2022-10-28T07:28:30.289Z,100489.09
2022-10-28T07:31:02.955Z,100497.16
2022-10-28T07:33:31.182Z,100506.69
2022-10-28T07:35:59.130Z,100496.22
2022-10-28T07:38:27.250Z,100451.94
2022-10-28T07:40:55.360Z,100481.03
2022-10-28T07:43:23.291Z,100470.53
2022-10-28T07:46:00.618Z,100407.38
2022-10-28T07:48:28.507Z,100471.84
2022-10-28T07:50:56.517Z,100468.72
2022-10-28T07:53:27.711Z,100475.66
2022-10-28T07:56:06.378Z,100464.34
2022-10-28T07:58:36.652Z,100470.34
2022-10-28T08:01:08.706Z,100466.13
2022-10-28T08:03:39.008Z,100479.06
2022-10-28T08:06:16.376Z,100442.69
2022-10-28T08:08:46.239Z,100479.44
2022-10-28T08:11:16.959Z,100482.28
2022-10-28T08:13:45.258Z,100461.59
2022-10-28T08:16:13.534Z,100427.94
2022-10-28T08:18:41.741Z,100450.22
2022-10-28T08:21:11.251Z,100443.56
2022-10-28T08:23:39.790Z,100398.44
2022-10-28T08:26:08.522Z,100440.78
2022-10-28T08:28:36.351Z,100437.94
2022-10-28T08:31:09.564Z,100436.38
2022-10-28T08:33:45.291Z,100427.75
2022-10-28T08:36:16.204Z,100387.28
2022-10-28T08:38:46.329Z,100425.81
2022-10-28T08:42:27.726Z,100419.72
2022-10-28T08:45:38.609Z,100411.50
2022-10-28T08:48:35.045Z,100397.56
2022-10-28T08:51:22.604Z,100355.78
2022-10-28T08:54:04.073Z,100381.75
2022-10-28T08:56:46.339Z,100362.44
2022-10-28T08:59:24.559Z,100382.72
2022-10-28T09:01:59.888Z,100335.91
2022-10-28T09:04:43.607Z,100362.94
2022-10-28T09:07:34.053Z,100288.66
2022-10-28T09:10:02.241Z,100308.19
2022-10-28T09:12:44.433Z,100324.69
2022-10-28T09:15:33.178Z,100338.53
2022-10-28T09:18:31.027Z,100350.81
2022-10-28T09:21:05.283Z,100346.13
2022-10-28T09:23:43.164Z,100311.81
2022-10-28T09:27:12.194Z,100349.44
2022-10-28T09:29:50.587Z,100353.06
2022-10-28T09:33:05.453Z,100342.72
2022-10-28T09:35:41.427Z,100342.25
2022-10-28T09:38:19.698Z,100330.31
2022-10-28T09:41:02.833Z,100313.84
2022-10-28T09:43:35.662Z,100321.91
2022-10-28T09:46:16.563Z,100273.88
2022-10-28T09:48:48.121Z,100193.75
2022-10-28T09:51:52.860Z,100290.16
2022-10-28T09:54:30.830Z,100261.25
2022-10-28T09:56:59.131Z,100285.19
2022-10-28T09:59:27.413Z,100271.34
2022-10-28T10:01:55.680Z,100250.16
2022-10-28T10:04:27.193Z,100257.41
2022-10-28T10:07:08.609Z,100243.00
2022-10-28T10:09:39.209Z,100269.16
2022-10-28T10:12:10.140Z,100220.00
2022-10-28T10:14:52.288Z,100254.41
2022-10-28T10:17:27.421Z,100260.31
2022-10-28T10:20:10.656Z,100211.00
2022-10-28T10:22:44.506Z,100239.50
2022-10-28T10:25:19.365Z,100232.28
2022-10-28T10:27:59.262Z,100180.91
2022-10-28T10:30:53.763Z,100238.88
2022-10-28T10:33:40.531Z,100226.28
2022-10-28T10:36:11.351Z,100212.38
2022-10-28T10:38:57.659Z,100210.22
2022-10-28T10:41:43.736Z,100184.16
2022-10-28T10:44:33.856Z,100204.50
2022-10-28T10:47:05.959Z,100165.19
2022-10-28T10:49:38.285Z,100122.75
2022-10-28T10:52:23.876Z,100188.53
2022-10-28T10:55:19.442Z,100156.63
2022-10-28T10:57:48.827Z,100183.50
2022-10-28T11:00:20.874Z,100198.63
2022-10-28T11:02:52.265Z,100148.88
2022-10-28T11:05:29.023Z,100176.25
2022-10-28T11:08:06.804Z,100176.22
2022-10-28T11:10:35.559Z,100183.75
2022-10-28T11:13:26.629Z,100189.09
2022-10-28T11:16:06.931Z,100188.31
2022-10-28T11:18:46.815Z,100176.56
2022-10-28T11:21:28.807Z,100181.44
2022-10-28T11:24:05.511Z,100189.94
2022-10-28T11:26:45.295Z,100129.09
2022-10-28T11:29:16.020Z,100139.09
2022-10-28T11:32:11.232Z,100166.44
2022-10-28T11:35:20.499Z,100159.31
2022-10-28T11:37:57.774Z,100158.44
2022-10-28T11:40:34.637Z,100154.25
2022-10-28T11:43:35.161Z,100146.16
2022-10-28T11:46:32.149Z,100169.84
2022-10-28T11:49:38.301Z,100162.88
2022-10-28T11:52:52.320Z,100167.22
2022-10-28T11:55:47.031Z,100169.16
2022-10-28T11:58:42.718Z,100150.88
2022-10-28T12:01:52.446Z,100143.81
2022-10-28T12:05:04.401Z,100142.38
2022-10-28T12:08:07.557Z,100149.44
2022-10-28T12:10:45.809Z,100136.44
2022-10-28T12:13:44.199Z,100068.56
2022-10-28T12:16:21.617Z,100141.47
2022-10-28T12:19:04.254Z,100122.28
2022-10-28T12:21:43.886Z,100089.91
2022-10-28T12:24:19.710Z,100117.25
2022-10-28T12:27:05.872Z,100153.94
2022-10-28T12:29:41.415Z,100128.75
2022-10-28T12:32:15.283Z,100134.38
2022-10-28T12:35:14.983Z,100128.63
2022-10-28T12:38:09.031Z,100127.88
2022-10-28T12:40:47.017Z,100073.44
2022-10-28T12:43:34.787Z,100123.34
2022-10-28T12:46:03.995Z,100126.53
2022-10-28T12:48:42.816Z,100117.28
2022-10-28T12:51:38.934Z,100119.84
2022-10-28T12:54:32.338Z,100106.16
2022-10-28T12:57:15.279Z,100068.66
2022-10-28T12:59:59.029Z,100087.25
2022-10-28T13:02:41.490Z,100105.00
2022-10-28T13:05:26.426Z,100091.28
2022-10-28T13:08:09.203Z,100100.31
2022-10-28T13:11:07.998Z,100082.72
2022-10-28T13:14:05.137Z,100092.56
2022-10-28T13:17:24.078Z,100092.25
2022-10-28T13:20:15.901Z,100089.84
2022-10-28T13:23:11.830Z,100095.38
2022-10-28T13:25:59.919Z,100079.94
2022-10-28T13:28:34.593Z,100036.56
2022-10-28T13:31:08.034Z,100073.97
2022-10-28T13:33:38.465Z,100062.53
2022-10-28T13:36:30.482Z,99984.34
2022-10-28T13:39:01.916Z,100059.31
2022-10-28T13:41:31.691Z,100068.09
2022-10-28T13:44:20.592Z,100014.16
2022-10-28T13:47:13.422Z,100073.19
2022-10-28T13:50:09.975Z,100070.06
2022-10-28T13:52:46.931Z,100081.03
2022-10-28T13:55:25.683Z,100039.34
2022-10-28T13:58:04.777Z,100074.28
2022-10-28T14:00:32.838Z,100068.75
2022-10-28T14:03:02.613Z,100068.94
2022-10-28T14:05:36.996Z,100076.53
2022-10-28T14:08:17.355Z,100040.31
2022-10-28T14:11:24.872Z,100080.94
2022-10-28T14:14:01.266Z,100079.91
2022-10-28T14:16:35.148Z,100034.25
2022-10-28T14:19:21.825Z,100072.16
2022-10-28T14:22:09.353Z,100060.09
2022-10-28T14:24:43.077Z,100069.81
2022-10-28T14:27:15.541Z,100065.19
2022-10-28T14:29:50.745Z,100071.78
2022-10-28T14:32:33.941Z,100065.75
2022-10-28T14:35:10.505Z,100068.69
2022-10-28T14:38:00.270Z,100064.38
2022-10-28T14:40:52.160Z,100042.66
2022-10-28T14:43:50.975Z,100064.72
2022-10-28T14:47:28.140Z,100074.84
2022-10-28T14:50:08.142Z,100048.03
2022-10-28T14:52:37.787Z,100059.47
2022-10-28T14:55:19.622Z,100080.94
2022-10-28T14:57:47.797Z,99970.03
2022-10-28T15:00:21.010Z,100048.56
2022-10-28T15:02:50.454Z,100077.28
2022-10-28T15:05:21.870Z,100083.13
2022-10-28T15:07:50.618Z,100079.78
2022-10-28T15:10:31.776Z,100013.09
2022-10-28T15:13:01.420Z,100098.47
2022-10-28T15:15:33.235Z,100105.84
2022-10-28T15:18:02.056Z,100083.34
2022-10-28T15:20:35.149Z,100102.66
2022-10-28T15:23:20.768Z,100107.13
2022-10-28T15:26:15.970Z,100114.94
2022-10-28T15:28:44.207Z,100073.28
2022-10-28T15:31:12.052Z,100088.22
2022-10-28T15:33:42.336Z,100104.16
2022-10-28T15:36:18.225Z,100059.66
2022-10-28T15:38:59.818Z,100098.94
2022-10-28T15:41:39.314Z,100053.88
2022-10-28T15:44:25.148Z,100081.63
2022-10-28T15:46:55.480Z,100045.78
2022-10-28T15:49:40.669Z,100045.47
2022-10-28T15:52:17.905Z,100106.69
2022-10-28T15:55:00.605Z,100009.25
2022-10-28T15:57:36.060Z,100080.06
2022-10-28T16:00:25.532Z,100108.53
2022-10-28T16:03:05.679Z,100101.81
2022-10-28T16:05:33.709Z,100102.56
2022-10-28T16:08:05.569Z,100105.19
2022-10-28T16:10:46.861Z,100036.97
2022-10-28T16:13:30.286Z,100119.50
2022-10-28T16:16:14.618Z,100122.09
2022-10-28T16:18:47.921Z,100127.00
2022-10-28T16:21:27.361Z,100034.75
2022-10-28T16:24:02.063Z,100129.50
2022-10-28T16:26:32.645Z,100139.91
2022-10-28T16:29:00.692Z,100141.03
2022-10-28T16:31:30.990Z,100133.63
2022-10-28T16:34:00.040Z,100085.41
2022-10-28T16:36:28.754Z,100128.41
2022-10-28T16:38:56.701Z,100120.41
2022-10-28T16:41:25.403Z,100090.56
2022-10-28T16:43:53.364Z,100138.56
2022-10-28T16:46:21.362Z,100096.09
2022-10-28T16:48:49.571Z,100135.59
2022-10-28T16:51:18.322Z,100130.03
2022-10-28T16:53:51.099Z,100136.53
2022-10-28T16:56:19.196Z,100120.03
2022-10-28T16:58:47.168Z,100124.13
2022-10-28T17:01:21.454Z,100125.09
2022-10-28T17:03:49.609Z,100121.16
2022-10-28T17:06:17.553Z,100054.44
2022-10-28T17:11:33.756Z,100079.56
2022-10-28T17:14:01.964Z,100107.84
2022-10-28T17:16:29.947Z,100109.75
2022-10-28T17:18:57.965Z,100069.50
2022-10-28T17:21:26.275Z,100089.38
2022-10-28T17:23:54.635Z,100101.31
2022-10-28T17:26:22.627Z,100063.34
2022-10-28T17:28:55.429Z,100105.41
2022-10-28T17:31:25.180Z,100111.06
2022-10-28T17:33:55.111Z,100109.22
2022-10-28T17:36:23.803Z,100112.91
2022-10-28T17:38:51.757Z,100101.44
2022-10-28T17:41:20.031Z,100095.91
2022-10-28T17:43:48.406Z,100089.47
2022-10-28T17:46:16.345Z,100102.28
2022-10-28T17:48:44.395Z,100037.91
2022-10-28T17:51:13.175Z,100088.69
2022-10-28T17:53:41.084Z,100076.31
2022-10-28T17:56:09.681Z,100070.38
2022-10-28T17:58:38.591Z,100055.84
2022-10-28T18:01:08.632Z,100077.13
2022-10-28T18:03:39.206Z,100084.38
2022-10-28T18:06:11.974Z,100076.38
2022-10-28T18:08:43.153Z,100083.66
2022-10-28T18:11:14.456Z,100083.53
2022-10-28T18:13:49.983Z,100087.34
2022-10-28T18:16:22.288Z,100024.91
2022-10-28T18:18:51.728Z,100079.56
2022-10-28T18:21:20.451Z,100078.28
2022-10-28T18:23:53.494Z,100068.44
2022-10-28T18:26:22.202Z,100068.00
2022-10-28T18:28:50.113Z,100031.38
2022-10-28T18:31:20.516Z,100028.31
2022-10-28T18:33:49.314Z,100069.22
2022-10-28T18:36:24.678Z,100031.53
2022-10-28T18:38:53.204Z,99989.66
2022-10-28T18:41:24.258Z,100068.59
2022-10-28T18:44:01.670Z,100021.78
2022-10-28T18:46:32.939Z,100027.53
2022-10-28T18:49:04.860Z,100061.59
2022-10-28T18:51:42.467Z,100071.81
2022-10-28T18:54:10.697Z,100066.00
2022-10-28T18:56:38.839Z,100073.88
2022-10-28T18:59:06.823Z,100029.56
2022-10-28T19:01:35.240Z,100036.84
2022-10-28T19:04:05.494Z,100034.56
2022-10-28T19:06:34.513Z,100062.91
2022-10-28T19:09:04.979Z,100068.97
2022-10-28T19:11:34.587Z,100074.16
2022-10-28T19:14:08.660Z,100068.81
2022-10-28T19:16:36.721Z,100065.44
2022-10-28T19:19:05.963Z,100059.00
2022-10-28T19:21:34.940Z,100048.16
2022-10-28T19:24:03.727Z,100071.50
2022-10-28T19:26:33.568Z,100095.13
2022-10-28T19:29:01.621Z,100103.91
2022-10-28T19:31:30.947Z,100064.00
2022-10-28T19:33:58.931Z,100066.91
2022-10-28T19:36:29.700Z,100105.50
2022-10-28T19:38:58.471Z,100096.84
2022-10-28T19:41:29.499Z,100104.16
2022-10-28T19:44:04.554Z,100072.50
2022-10-28T19:46:35.727Z,100070.97
2022-10-28T19:49:06.964Z,100101.03
2022-10-28T19:51:40.889Z,100097.56
2022-10-28T19:54:12.395Z,100098.22
2022-10-28T19:56:42.822Z,100069.06
2022-10-28T19:59:11.197Z,100091.91
2022-10-28T20:01:41.135Z,100100.06
2022-10-28T20:04:10.386Z,100057.19
2022-10-28T20:06:40.824Z,100093.31
2022-10-28T20:09:09.427Z,100053.97
2022-10-28T20:11:39.235Z,100093.72
2022-10-28T20:14:11.991Z,100086.41
2022-10-28T20:16:43.133Z,100057.75
2022-10-28T20:19:11.967Z,100074.03
2022-10-28T20:21:40.678Z,100073.03
2022-10-28T20:24:09.001Z,100064.09
2022-10-28T20:26:40.941Z,100064.53
2022-10-28T20:29:10.139Z,100065.59
2022-10-28T20:31:39.270Z,99963.34
2022-10-28T20:34:08.705Z,100055.03
2022-10-28T20:36:44.130Z,100045.97
2022-10-28T20:39:21.208Z,100011.22
2022-10-28T20:41:51.286Z,99954.00
2022-10-28T20:44:19.362Z,99954.75
2022-10-28T20:46:54.347Z,99991.19
2022-10-28T20:49:24.149Z,100069.91
2022-10-28T20:51:52.379Z,100028.38
2022-10-28T20:54:20.519Z,100063.75
2022-10-28T20:56:49.767Z,100048.03
2022-10-28T20:59:36.572Z,100041.13
2022-10-28T21:02:04.803Z,100023.91
2022-10-28T21:04:33.547Z,100055.06
2022-10-28T21:07:01.484Z,100057.75
2022-10-28T21:09:29.786Z,100045.53
2022-10-28T21:11:58.079Z,100044.69
2022-10-28T21:14:26.133Z,100050.28
2022-10-28T21:16:54.436Z,99977.78
2022-10-28T21:19:22.815Z,100032.63
2022-10-28T21:21:50.783Z,100018.31
2022-10-28T21:24:18.708Z,99982.97
2022-10-28T21:26:48.436Z,100031.53
2022-10-28T21:29:20.307Z,100044.41
2022-10-28T21:31:48.308Z,100028.44
2022-10-28T21:34:16.254Z,100042.59
2022-10-28T21:36:44.384Z,100055.78
2022-10-28T21:39:12.284Z,100051.16
2022-10-28T21:41:40.267Z,100038.97
2022-10-28T21:44:10.055Z,100003.72
2022-10-28T21:46:37.945Z,100040.06
2022-10-28T21:49:05.789Z,100057.75
2022-10-28T21:51:37.348Z,100060.41
2022-10-28T21:54:05.512Z,100050.03
2022-10-28T21:56:33.535Z,100046.09
2022-10-28T21:59:01.611Z,100058.03
2022-10-28T22:01:29.839Z,100010.91
2022-10-28T22:03:57.954Z,100026.44
2022-10-28T22:06:26.872Z,100019.88
2022-10-28T22:08:55.902Z,100050.31
2022-10-28T22:11:24.368Z,100029.53
2022-10-28T22:13:58.962Z,99979.59
2022-10-28T22:16:29.295Z,100016.88
2022-10-28T22:19:00.145Z,100012.81
2022-10-28T22:21:31.950Z,99996.13
2022-10-28T22:24:00.136Z,100029.25
2022-10-28T22:26:30.670Z,100005.38
2022-10-28T22:28:59.111Z,99999.78
2022-10-28T22:31:31.707Z,100035.84
2022-10-28T22:34:00.899Z,100038.50
2022-10-28T22:36:30.247Z,99944.69
2022-10-28T22:38:59.069Z,99966.44
2022-10-28T22:41:30.570Z,99980.59
2022-10-28T22:44:01.849Z,100024.91
2022-10-28T22:46:33.581Z,99997.28
2022-10-28T22:49:01.442Z,99980.16
2022-10-28T22:51:29.252Z,100013.25
2022-10-28T22:53:57.537Z,99979.59
2022-10-28T22:56:27.561Z,99967.53
2022-10-28T22:58:58.516Z,100026.75
2022-10-28T23:01:28.586Z,100020.69
2022-10-28T23:03:56.886Z,99965.59
2022-10-28T23:06:27.274Z,100016.78
2022-10-28T23:08:55.748Z,100017.47
2022-10-28T23:11:24.451Z,100015.63
2022-10-28T23:13:55.723Z,100010.88
2022-10-28T23:16:25.369Z,99994.34
2022-10-28T23:18:54.387Z,100004.31
2022-10-28T23:21:26.681Z,99963.19
2022-10-28T23:24:00.357Z,99944.69
2022-10-28T23:26:29.856Z,100000.09
2022-10-28T23:28:59.833Z,99979.16
2022-10-28T23:31:28.839Z,99939.47
2022-10-28T23:33:59.384Z,99986.47
2022-10-28T23:36:27.395Z,99987.91
2022-10-28T23:38:57.449Z,99979.44
2022-10-28T23:41:25.394Z,99986.06
2022-10-28T23:43:53.234Z,99992.81
2022-10-28T23:46:22.806Z,99984.66
2022-10-28T23:48:51.167Z,99979.47
2022-10-28T23:51:20.536Z,99959.16
2022-10-28T23:53:48.560Z,99924.66
2022-10-28T23:56:16.693Z,99881.06
2022-10-28T23:58:44.719Z,99969.94
